sensor_id;sensor_type;location;lat;lon;timestamp;P1;durP1;ratioP1;P2;durP2;ratioP2
6113;SDS011;3087;48.392;10.836;2022-08-25T00:00:17;5.93;;;5.18;;
6113;SDS011;3087;48.392;10.836;2022-08-25T00:02:44;6.15;;;5.55;;
6113;SDS011;3087;48.392;10.836;2022-08-25T00:05:10;6.25;;;5.65;;
6113;SDS011;3087;48.392;10.836;2022-08-25T00:07:36;5.32;;;4.82;;
6113;SDS011;3087;48.392;10.836;2022-08-25T00:10:02;10.75;;;6.18;;
6113;SDS011;3087;48.392;10.836;2022-08-25T00:12:31;7.70;;;5.93;;
6113;SDS011;3087;48.392;10.836;2022-08-25T00:14:57;5.90;;;5.30;;
6113;SDS011;3087;48.392;10.836;2022-08-25T00:17:22;5.93;;;5.43;;
6113;SDS011;3087;48.392;10.836;2022-08-25T00:19:48;6.53;;;5.93;;
6113;SDS011;3087;48.392;10.836;2022-08-25T00:22:14;6.20;;;5.60;;
6113;SDS011;3087;48.392;10.836;2022-08-25T00:24:40;9.13;;;6.05;;
6113;SDS011;3087;48.392;10.836;2022-08-25T00:27:05;6.13;;;5.53;;
6113;SDS011;3087;48.392;10.836;2022-08-25T00:29:31;6.53;;;5.85;;
6113;SDS011;3087;48.392;10.836;2022-08-25T00:31:58;6.90;;;6.22;;
6113;SDS011;3087;48.392;10.836;2022-08-25T00:34:29;6.90;;;6.20;;
6113;SDS011;3087;48.392;10.836;2022-08-25T00:36:58;6.15;;;5.57;;
6113;SDS011;3087;48.392;10.836;2022-08-25T00:39:24;6.55;;;5.95;;
6113;SDS011;3087;48.392;10.836;2022-08-25T00:41:53;7.68;;;6.03;;
6113;SDS011;3087;48.392;10.836;2022-08-25T00:44:20;6.43;;;5.82;;
6113;SDS011;3087;48.392;10.836;2022-08-25T00:46:48;6.70;;;6.10;;
6113;SDS011;3087;48.392;10.836;2022-08-25T00:54:44;9.05;;;5.90;;
6113;SDS011;3087;48.392;10.836;2022-08-25T00:57:13;6.57;;;5.85;;
6113;SDS011;3087;48.392;10.836;2022-08-25T00:59:40;6.82;;;6.13;;
6113;SDS011;3087;48.392;10.836;2022-08-25T01:02:07;7.60;;;6.38;;
6113;SDS011;3087;48.392;10.836;2022-08-25T01:04:33;7.40;;;6.20;;
6113;SDS011;3087;48.392;10.836;2022-08-25T01:07:00;6.57;;;5.80;;
6113;SDS011;3087;48.392;10.836;2022-08-25T01:09:27;6.78;;;6.18;;
6113;SDS011;3087;48.392;10.836;2022-08-25T01:11:55;14.05;;;12.52;;
6113;SDS011;3087;48.392;10.836;2022-08-25T01:14:21;8.43;;;7.03;;
6113;SDS011;3087;48.392;10.836;2022-08-25T01:16:50;8.60;;;6.40;;
6113;SDS011;3087;48.392;10.836;2022-08-25T01:19:17;7.68;;;6.88;;
6113;SDS011;3087;48.392;10.836;2022-08-25T01:21:47;8.13;;;7.32;;
6113;SDS011;3087;48.392;10.836;2022-08-25T01:24:18;7.50;;;6.60;;
6113;SDS011;3087;48.392;10.836;2022-08-25T01:26:50;7.32;;;6.40;;
6113;SDS011;3087;48.392;10.836;2022-08-25T01:29:15;7.93;;;7.07;;
6113;SDS011;3087;48.392;10.836;2022-08-25T01:31:55;8.95;;;7.22;;
6113;SDS011;3087;48.392;10.836;2022-08-25T01:34:26;9.55;;;6.82;;
6113;SDS011;3087;48.392;10.836;2022-08-25T01:36:55;7.50;;;6.72;;
6113;SDS011;3087;48.392;10.836;2022-08-25T01:39:22;9.18;;;6.97;;
6113;SDS011;3087;48.392;10.836;2022-08-25T01:44:34;9.00;;;7.00;;
6113;SDS011;3087;48.392;10.836;2022-08-25T01:47:03;7.65;;;6.90;;
6113;SDS011;3087;48.392;10.836;2022-08-25T01:49:30;7.68;;;6.65;;
6113;SDS011;3087;48.392;10.836;2022-08-25T01:52:44;8.18;;;7.07;;
6113;SDS011;3087;48.392;10.836;2022-08-25T01:54:48;7.18;;;6.47;;
6113;SDS011;3087;48.392;10.836;2022-08-25T01:57:14;8.93;;;7.07;;
6113;SDS011;3087;48.392;10.836;2022-08-25T01:59:39;9.23;;;6.65;;
6113;SDS011;3087;48.392;10.836;2022-08-25T02:02:05;8.48;;;7.25;;
6113;SDS011;3087;48.392;10.836;2022-08-25T02:04:31;8.00;;;7.13;;
6113;SDS011;3087;48.392;10.836;2022-08-25T02:06:58;8.52;;;7.72;;
6113;SDS011;3087;48.392;10.836;2022-08-25T02:09:25;8.57;;;7.68;;
6113;SDS011;3087;48.392;10.836;2022-08-25T02:11:51;8.35;;;7.18;;
6113;SDS011;3087;48.392;10.836;2022-08-25T02:14:16;10.45;;;7.82;;
6113;SDS011;3087;48.392;10.836;2022-08-25T02:16:45;11.20;;;7.40;;
6113;SDS011;3087;48.392;10.836;2022-08-25T02:19:13;7.72;;;6.80;;
6113;SDS011;3087;48.392;10.836;2022-08-25T02:21:39;9.27;;;7.47;;
6113;SDS011;3087;48.392;10.836;2022-08-25T02:24:05;8.52;;;7.03;;
6113;SDS011;3087;48.392;10.836;2022-08-25T02:26:32;8.30;;;7.50;;
6113;SDS011;3087;48.392;10.836;2022-08-25T02:28:58;8.95;;;7.45;;
6113;SDS011;3087;48.392;10.836;2022-08-25T02:31:25;8.85;;;7.72;;
6113;SDS011;3087;48.392;10.836;2022-08-25T02:33:51;8.55;;;7.40;;
6113;SDS011;3087;48.392;10.836;2022-08-25T02:36:17;9.80;;;8.38;;
6113;SDS011;3087;48.392;10.836;2022-08-25T02:38:44;7.97;;;7.18;;
6113;SDS011;3087;48.392;10.836;2022-08-25T02:41:14;9.27;;;8.38;;
6113;SDS011;3087;48.392;10.836;2022-08-25T02:43:45;10.48;;;9.15;;
6113;SDS011;3087;48.392;10.836;2022-08-25T02:46:13;9.07;;;8.18;;
6113;SDS011;3087;48.392;10.836;2022-08-25T02:48:39;9.23;;;8.32;;
6113;SDS011;3087;48.392;10.836;2022-08-25T02:51:05;12.98;;;8.75;;
6113;SDS011;3087;48.392;10.836;2022-08-25T02:53:33;9.27;;;8.35;;
6113;SDS011;3087;48.392;10.836;2022-08-25T02:55:59;10.45;;;8.27;;
6113;SDS011;3087;48.392;10.836;2022-08-25T02:58:25;9.70;;;8.70;;
6113;SDS011;3087;48.392;10.836;2022-08-25T03:00:51;9.32;;;8.25;;
6113;SDS011;3087;48.392;10.836;2022-08-25T03:03:17;9.18;;;8.27;;
6113;SDS011;3087;48.392;10.836;2022-08-25T03:05:44;12.02;;;8.55;;
6113;SDS011;3087;48.392;10.836;2022-08-25T03:08:10;9.65;;;7.95;;
6113;SDS011;3087;48.392;10.836;2022-08-25T03:10:37;10.27;;;8.75;;
6113;SDS011;3087;48.392;10.836;2022-08-25T03:13:02;10.20;;;9.18;;
6113;SDS011;3087;48.392;10.836;2022-08-25T03:15:29;9.40;;;8.35;;
6113;SDS011;3087;48.392;10.836;2022-08-25T03:17:54;10.48;;;9.13;;
6113;SDS011;3087;48.392;10.836;2022-08-25T03:20:21;11.50;;;9.65;;
6113;SDS011;3087;48.392;10.836;2022-08-25T03:22:47;11.07;;;9.07;;
6113;SDS011;3087;48.392;10.836;2022-08-25T03:25:13;11.00;;;9.75;;
6113;SDS011;3087;48.392;10.836;2022-08-25T03:27:58;14.07;;;9.40;;
6113;SDS011;3087;48.392;10.836;2022-08-25T03:30:25;11.25;;;8.80;;
6113;SDS011;3087;48.392;10.836;2022-08-25T03:32:51;10.00;;;8.93;;
6113;SDS011;3087;48.392;10.836;2022-08-25T03:35:17;10.43;;;8.63;;
6113;SDS011;3087;48.392;10.836;2022-08-25T03:37:43;10.07;;;8.70;;
6113;SDS011;3087;48.392;10.836;2022-08-25T03:40:13;9.68;;;8.20;;
6113;SDS011;3087;48.392;10.836;2022-08-25T03:42:43;9.38;;;8.48;;
6113;SDS011;3087;48.392;10.836;2022-08-25T03:45:11;11.48;;;8.93;;
6113;SDS011;3087;48.392;10.836;2022-08-25T03:47:39;9.68;;;8.65;;
6113;SDS011;3087;48.392;10.836;2022-08-25T03:50:06;10.27;;;9.27;;
6113;SDS011;3087;48.392;10.836;2022-08-25T03:52:34;10.20;;;8.57;;
6113;SDS011;3087;48.392;10.836;2022-08-25T03:55:02;9.23;;;8.00;;
6113;SDS011;3087;48.392;10.836;2022-08-25T03:57:29;10.18;;;8.32;;
6113;SDS011;3087;48.392;10.836;2022-08-25T03:59:54;11.95;;;8.82;;
6113;SDS011;3087;48.392;10.836;2022-08-25T04:02:20;10.20;;;8.77;;
6113;SDS011;3087;48.392;10.836;2022-08-25T04:04:46;9.23;;;8.27;;
6113;SDS011;3087;48.392;10.836;2022-08-25T04:07:11;10.40;;;8.30;;
6113;SDS011;3087;48.392;10.836;2022-08-25T04:09:37;9.82;;;8.60;;
6113;SDS011;3087;48.392;10.836;2022-08-25T04:12:03;10.32;;;8.27;;
6113;SDS011;3087;48.392;10.836;2022-08-25T04:14:29;10.05;;;8.05;;
6113;SDS011;3087;48.392;10.836;2022-08-25T04:16:55;11.02;;;8.80;;
6113;SDS011;3087;48.392;10.836;2022-08-25T04:19:21;10.32;;;9.27;;
6113;SDS011;3087;48.392;10.836;2022-08-25T04:21:47;11.55;;;8.45;;
6113;SDS011;3087;48.392;10.836;2022-08-25T04:24:13;13.23;;;9.88;;
6113;SDS011;3087;48.392;10.836;2022-08-25T04:26:43;10.10;;;8.75;;
6113;SDS011;3087;48.392;10.836;2022-08-25T04:29:11;10.35;;;9.23;;
6113;SDS011;3087;48.392;10.836;2022-08-25T04:31:39;10.93;;;9.32;;
6113;SDS011;3087;48.392;10.836;2022-08-25T04:34:06;10.48;;;8.90;;
6113;SDS011;3087;48.392;10.836;2022-08-25T04:36:33;9.82;;;8.93;;
6113;SDS011;3087;48.392;10.836;2022-08-25T04:38:59;9.93;;;8.82;;
6113;SDS011;3087;48.392;10.836;2022-08-25T04:41:25;10.55;;;8.88;;
6113;SDS011;3087;48.392;10.836;2022-08-25T04:43:54;11.07;;;9.95;;
6113;SDS011;3087;48.392;10.836;2022-08-25T04:46:22;11.90;;;8.50;;
6113;SDS011;3087;48.392;10.836;2022-08-25T04:48:50;9.88;;;8.73;;
6113;SDS011;3087;48.392;10.836;2022-08-25T04:51:18;11.63;;;8.95;;
6113;SDS011;3087;48.392;10.836;2022-08-25T04:53:47;13.15;;;8.82;;
6113;SDS011;3087;48.392;10.836;2022-08-25T04:56:14;8.65;;;7.53;;
6113;SDS011;3087;48.392;10.836;2022-08-25T04:58:42;13.57;;;10.65;;
6113;SDS011;3087;48.392;10.836;2022-08-25T05:01:10;10.07;;;9.00;;
6113;SDS011;3087;48.392;10.836;2022-08-25T05:03:39;10.68;;;8.93;;
6113;SDS011;3087;48.392;10.836;2022-08-25T05:06:05;12.40;;;9.20;;
6113;SDS011;3087;48.392;10.836;2022-08-25T05:08:31;9.65;;;8.75;;
6113;SDS011;3087;48.392;10.836;2022-08-25T05:10:57;12.90;;;9.20;;
6113;SDS011;3087;48.392;10.836;2022-08-25T05:13:24;9.48;;;8.57;;
6113;SDS011;3087;48.392;10.836;2022-08-25T05:15:54;11.93;;;10.50;;
6113;SDS011;3087;48.392;10.836;2022-08-25T05:18:21;11.35;;;9.70;;
6113;SDS011;3087;48.392;10.836;2022-08-25T05:20:51;10.90;;;9.80;;
6113;SDS011;3087;48.392;10.836;2022-08-25T05:23:18;12.10;;;10.05;;
6113;SDS011;3087;48.392;10.836;2022-08-25T05:25:48;12.68;;;10.30;;
6113;SDS011;3087;48.392;10.836;2022-08-25T05:28:16;10.18;;;9.23;;
6113;SDS011;3087;48.392;10.836;2022-08-25T05:30:42;11.13;;;9.23;;
6113;SDS011;3087;48.392;10.836;2022-08-25T05:33:09;11.05;;;9.50;;
6113;SDS011;3087;48.392;10.836;2022-08-25T05:35:35;15.00;;;10.52;;
6113;SDS011;3087;48.392;10.836;2022-08-25T05:38:02;14.77;;;10.23;;
6113;SDS011;3087;48.392;10.836;2022-08-25T05:40:28;11.48;;;10.30;;
6113;SDS011;3087;48.392;10.836;2022-08-25T05:42:55;12.10;;;9.73;;
6113;SDS011;3087;48.392;10.836;2022-08-25T05:45:23;13.63;;;10.40;;
6113;SDS011;3087;48.392;10.836;2022-08-25T05:47:49;10.43;;;9.02;;
6113;SDS011;3087;48.392;10.836;2022-08-25T05:50:15;11.85;;;10.65;;
6113;SDS011;3087;48.392;10.836;2022-08-25T05:52:42;9.85;;;8.82;;
6113;SDS011;3087;48.392;10.836;2022-08-25T05:55:08;11.13;;;9.07;;
6113;SDS011;3087;48.392;10.836;2022-08-25T05:57:35;11.25;;;9.27;;
6113;SDS011;3087;48.392;10.836;2022-08-25T06:00:07;10.05;;;8.93;;
6113;SDS011;3087;48.392;10.836;2022-08-25T06:02:34;13.05;;;10.48;;
6113;SDS011;3087;48.392;10.836;2022-08-25T06:05:15;10.88;;;9.77;;
6113;SDS011;3087;48.392;10.836;2022-08-25T06:07:44;13.48;;;10.20;;
6113;SDS011;3087;48.392;10.836;2022-08-25T06:10:11;10.95;;;9.73;;
6113;SDS011;3087;48.392;10.836;2022-08-25T06:12:40;10.13;;;9.13;;
6113;SDS011;3087;48.392;10.836;2022-08-25T06:15:08;11.48;;;10.27;;
6113;SDS011;3087;48.392;10.836;2022-08-25T06:17:35;12.07;;;10.00;;
6113;SDS011;3087;48.392;10.836;2022-08-25T06:20:05;10.32;;;9.32;;
6113;SDS011;3087;48.392;10.836;2022-08-25T06:22:35;10.40;;;9.30;;
6113;SDS011;3087;48.392;10.836;2022-08-25T06:25:02;10.60;;;9.60;;
6113;SDS011;3087;48.392;10.836;2022-08-25T06:27:28;10.10;;;9.18;;
6113;SDS011;3087;48.392;10.836;2022-08-25T06:29:54;10.25;;;9.25;;
6113;SDS011;3087;48.392;10.836;2022-08-25T06:32:20;10.48;;;9.23;;
6113;SDS011;3087;48.392;10.836;2022-08-25T06:34:46;11.80;;;9.02;;
6113;SDS011;3087;48.392;10.836;2022-08-25T06:37:21;10.13;;;9.13;;
6113;SDS011;3087;48.392;10.836;2022-08-25T06:39:47;11.15;;;8.48;;
6113;SDS011;3087;48.392;10.836;2022-08-25T06:42:13;11.05;;;8.43;;
6113;SDS011;3087;48.392;10.836;2022-08-25T06:44:39;10.52;;;9.13;;
6113;SDS011;3087;48.392;10.836;2022-08-25T06:47:10;12.23;;;9.63;;
6113;SDS011;3087;48.392;10.836;2022-08-25T06:49:35;11.65;;;9.20;;
6113;SDS011;3087;48.392;10.836;2022-08-25T06:52:01;11.20;;;9.18;;
6113;SDS011;3087;48.392;10.836;2022-08-25T06:54:27;9.50;;;8.25;;
6113;SDS011;3087;48.392;10.836;2022-08-25T06:56:53;9.75;;;8.75;;
6113;SDS011;3087;48.392;10.836;2022-08-25T06:59:25;10.57;;;9.43;;
6113;SDS011;3087;48.392;10.836;2022-08-25T07:01:51;10.82;;;8.27;;
6113;SDS011;3087;48.392;10.836;2022-08-25T07:04:18;11.13;;;9.00;;
6113;SDS011;3087;48.392;10.836;2022-08-25T07:06:47;10.48;;;9.32;;
6113;SDS011;3087;48.392;10.836;2022-08-25T07:09:13;9.15;;;8.25;;
6113;SDS011;3087;48.392;10.836;2022-08-25T07:11:42;11.43;;;10.23;;
6113;SDS011;3087;48.392;10.836;2022-08-25T07:14:09;10.63;;;9.52;;
6113;SDS011;3087;48.392;10.836;2022-08-25T07:16:39;9.55;;;8.65;;
6113;SDS011;3087;48.392;10.836;2022-08-25T07:19:12;10.23;;;8.95;;
6113;SDS011;3087;48.392;10.836;2022-08-25T07:21:38;9.65;;;8.15;;
6113;SDS011;3087;48.392;10.836;2022-08-25T07:24:06;10.05;;;8.50;;
6113;SDS011;3087;48.392;10.836;2022-08-25T07:26:37;10.00;;;9.00;;
6113;SDS011;3087;48.392;10.836;2022-08-25T07:29:10;9.52;;;8.60;;
6113;SDS011;3087;48.392;10.836;2022-08-25T07:32:03;8.18;;;7.38;;
6113;SDS011;3087;48.392;10.836;2022-08-25T07:34:29;8.95;;;8.05;;
6113;SDS011;3087;48.392;10.836;2022-08-25T07:37:14;8.90;;;8.02;;
6113;SDS011;3087;48.392;10.836;2022-08-25T07:39:39;8.75;;;7.90;;
6113;SDS011;3087;48.392;10.836;2022-08-25T07:42:05;10.05;;;9.00;;
6113;SDS011;3087;48.392;10.836;2022-08-25T07:44:31;9.13;;;8.23;;
6113;SDS011;3087;48.392;10.836;2022-08-25T07:49:24;9.40;;;8.50;;
6113;SDS011;3087;48.392;10.836;2022-08-25T07:51:51;8.52;;;7.72;;
6113;SDS011;3087;48.392;10.836;2022-08-25T07:54:18;8.55;;;7.68;;
6113;SDS011;3087;48.392;10.836;2022-08-25T07:56:44;8.48;;;7.65;;
6113;SDS011;3087;48.392;10.836;2022-08-25T07:59:10;7.93;;;7.13;;
6113;SDS011;3087;48.392;10.836;2022-08-25T08:01:45;8.18;;;7.38;;
6113;SDS011;3087;48.392;10.836;2022-08-25T08:04:11;8.40;;;7.55;;
6113;SDS011;3087;48.392;10.836;2022-08-25T08:06:37;7.82;;;7.13;;
6113;SDS011;3087;48.392;10.836;2022-08-25T08:09:03;8.25;;;7.40;;
6113;SDS011;3087;48.392;10.836;2022-08-25T08:11:30;8.57;;;6.75;;
6113;SDS011;3087;48.392;10.836;2022-08-25T08:13:58;6.75;;;6.15;;
6113;SDS011;3087;48.392;10.836;2022-08-25T08:16:26;7.55;;;6.75;;
6113;SDS011;3087;48.392;10.836;2022-08-25T08:18:54;7.53;;;6.75;;
6113;SDS011;3087;48.392;10.836;2022-08-25T08:21:27;7.25;;;6.55;;
6113;SDS011;3087;48.392;10.836;2022-08-25T08:23:55;9.20;;;5.78;;
6113;SDS011;3087;48.392;10.836;2022-08-25T08:29:06;6.68;;;5.53;;
6113;SDS011;3087;48.392;10.836;2022-08-25T08:31:31;7.03;;;5.75;;
6113;SDS011;3087;48.392;10.836;2022-08-25T08:33:58;7.00;;;5.22;;
6113;SDS011;3087;48.392;10.836;2022-08-25T08:36:26;9.43;;;7.75;;
6113;SDS011;3087;48.392;10.836;2022-08-25T08:38:52;8.38;;;6.65;;
6113;SDS011;3087;48.392;10.836;2022-08-25T08:44:21;7.00;;;6.30;;
6113;SDS011;3087;48.392;10.836;2022-08-25T08:49:27;6.32;;;5.70;;
6113;SDS011;3087;48.392;10.836;2022-08-25T08:52:01;6.55;;;5.85;;
6113;SDS011;3087;48.392;10.836;2022-08-25T08:54:31;7.25;;;6.43;;
6113;SDS011;3087;48.392;10.836;2022-08-25T08:57:18;7.75;;;5.90;;
6113;SDS011;3087;48.392;10.836;2022-08-25T08:59:54;6.70;;;6.03;;
6113;SDS011;3087;48.392;10.836;2022-08-25T09:05:03;9.60;;;6.28;;
6113;SDS011;3087;48.392;10.836;2022-08-25T09:07:40;6.70;;;5.90;;
6113;SDS011;3087;48.392;10.836;2022-08-25T09:10:22;8.38;;;5.85;;
6113;SDS011;3087;48.392;10.836;2022-08-25T09:13:02;5.32;;;4.82;;
6113;SDS011;3087;48.392;10.836;2022-08-25T09:15:59;5.53;;;5.03;;
6113;SDS011;3087;48.392;10.836;2022-08-25T09:19:10;6.15;;;5.55;;
6113;SDS011;3087;48.392;10.836;2022-08-25T09:21:53;8.70;;;6.30;;
6113;SDS011;3087;48.392;10.836;2022-08-25T09:27:05;8.80;;;5.45;;
6113;SDS011;3087;48.392;10.836;2022-08-25T09:30:04;6.88;;;5.85;;
6113;SDS011;3087;48.392;10.836;2022-08-25T09:32:33;6.13;;;5.15;;
6113;SDS011;3087;48.392;10.836;2022-08-25T09:35:16;6.65;;;5.70;;
6113;SDS011;3087;48.392;10.836;2022-08-25T09:38:00;6.68;;;4.93;;
6113;SDS011;3087;48.392;10.836;2022-08-25T09:40:30;6.15;;;5.28;;
6113;SDS011;3087;48.392;10.836;2022-08-25T09:42:58;6.00;;;5.38;;
6113;SDS011;3087;48.392;10.836;2022-08-25T09:45:34;5.80;;;4.13;;
6113;SDS011;3087;48.392;10.836;2022-08-25T09:48:01;5.32;;;4.82;;
6113;SDS011;3087;48.392;10.836;2022-08-25T09:50:29;5.60;;;5.10;;
6113;SDS011;3087;48.392;10.836;2022-08-25T09:53:02;5.35;;;4.85;;
6113;SDS011;3087;48.392;10.836;2022-08-25T09:55:37;7.07;;;5.05;;
6113;SDS011;3087;48.392;10.836;2022-08-25T09:58:22;8.30;;;4.78;;
6113;SDS011;3087;48.392;10.836;2022-08-25T10:01:31;6.93;;;4.78;;
6113;SDS011;3087;48.392;10.836;2022-08-25T10:03:57;5.60;;;4.65;;
6113;SDS011;3087;48.392;10.836;2022-08-25T10:06:29;5.70;;;5.07;;
6113;SDS011;3087;48.392;10.836;2022-08-25T10:09:05;5.35;;;4.88;;
6113;SDS011;3087;48.392;10.836;2022-08-25T10:11:42;6.63;;;5.95;;
6113;SDS011;3087;48.392;10.836;2022-08-25T10:22:33;7.15;;;5.13;;
6113;SDS011;3087;48.392;10.836;2022-08-25T10:25:00;5.35;;;4.75;;
6113;SDS011;3087;48.392;10.836;2022-08-25T10:27:35;4.90;;;4.50;;
6113;SDS011;3087;48.392;10.836;2022-08-25T10:30:07;4.97;;;4.25;;
6113;SDS011;3087;48.392;10.836;2022-08-25T10:35:44;5.15;;;4.65;;
6113;SDS011;3087;48.392;10.836;2022-08-25T10:38:36;5.93;;;4.82;;
6113;SDS011;3087;48.392;10.836;2022-08-25T10:48:50;8.02;;;4.63;;
6113;SDS011;3087;48.392;10.836;2022-08-25T11:05:33;6.35;;;5.50;;
6113;SDS011;3087;48.392;10.836;2022-08-25T11:08:09;5.90;;;5.13;;
6113;SDS011;3087;48.392;10.836;2022-08-25T11:10:45;7.50;;;4.80;;
6113;SDS011;3087;48.392;10.836;2022-08-25T11:13:20;7.88;;;5.68;;
6113;SDS011;3087;48.392;10.836;2022-08-25T11:18:18;6.40;;;5.70;;
6113;SDS011;3087;48.392;10.836;2022-08-25T11:20:52;5.45;;;4.95;;
6113;SDS011;3087;48.392;10.836;2022-08-25T11:23:49;7.68;;;5.20;;
6113;SDS011;3087;48.392;10.836;2022-08-25T11:26:24;7.78;;;5.57;;
6113;SDS011;3087;48.392;10.836;2022-08-25T11:29:16;8.13;;;5.80;;
6113;SDS011;3087;48.392;10.836;2022-08-25T11:31:51;7.05;;;6.18;;
6113;SDS011;3087;48.392;10.836;2022-08-25T11:34:18;7.65;;;6.25;;
6113;SDS011;3087;48.392;10.836;2022-08-25T11:36:51;6.28;;;5.38;;
6113;SDS011;3087;48.392;10.836;2022-08-25T11:42:28;10.50;;;9.32;;
6113;SDS011;3087;48.392;10.836;2022-08-25T11:50:25;6.32;;;5.72;;
6113;SDS011;3087;48.392;10.836;2022-08-25T11:54:12;8.13;;;6.47;;
6113;SDS011;3087;48.392;10.836;2022-08-25T11:55:49;7.97;;;6.65;;
6113;SDS011;3087;48.392;10.836;2022-08-25T12:00:56;8.45;;;7.22;;
6113;SDS011;3087;48.392;10.836;2022-08-25T12:27:22;7.63;;;6.57;;
6113;SDS011;3087;48.392;10.836;2022-08-25T12:29:54;7.97;;;6.22;;
6113;SDS011;3087;48.392;10.836;2022-08-25T12:36:08;6.90;;;6.18;;
6113;SDS011;3087;48.392;10.836;2022-08-25T12:41:00;8.48;;;6.93;;
6113;SDS011;3087;48.392;10.836;2022-08-25T12:43:32;8.30;;;6.90;;
6113;SDS011;3087;48.392;10.836;2022-08-25T12:48:59;12.90;;;11.23;;
6113;SDS011;3087;48.392;10.836;2022-08-25T12:56:45;12.70;;;8.60;;
6113;SDS011;3087;48.392;10.836;2022-08-25T12:59:18;13.35;;;9.38;;
6113;SDS011;3087;48.392;10.836;2022-08-25T13:01:54;15.60;;;10.68;;
6113;SDS011;3087;48.392;10.836;2022-08-25T13:10:14;11.38;;;8.98;;
6113;SDS011;3087;48.392;10.836;2022-08-25T13:16:23;11.43;;;9.30;;
6113;SDS011;3087;48.392;10.836;2022-08-25T13:18:53;11.05;;;8.25;;
6113;SDS011;3087;48.392;10.836;2022-08-25T13:21:36;9.85;;;8.18;;
6113;SDS011;3087;48.392;10.836;2022-08-25T13:24:05;10.70;;;7.97;;
6113;SDS011;3087;48.392;10.836;2022-08-25T13:26:59;10.25;;;7.97;;
6113;SDS011;3087;48.392;10.836;2022-08-25T13:29:28;9.55;;;7.68;;
6113;SDS011;3087;48.392;10.836;2022-08-25T13:34:34;10.90;;;7.40;;
6113;SDS011;3087;48.392;10.836;2022-08-25T13:37:06;7.50;;;6.45;;
6113;SDS011;3087;48.392;10.836;2022-08-25T13:40:11;7.68;;;6.88;;
6113;SDS011;3087;48.392;10.836;2022-08-25T13:42:55;9.95;;;6.38;;
6113;SDS011;3087;48.392;10.836;2022-08-25T13:45:28;8.55;;;6.68;;
6113;SDS011;3087;48.392;10.836;2022-08-25T13:47:55;7.25;;;6.22;;
6113;SDS011;3087;48.392;10.836;2022-08-25T13:55:24;10.43;;;6.22;;
6113;SDS011;3087;48.392;10.836;2022-08-25T13:57:53;7.65;;;5.75;;
6113;SDS011;3087;48.392;10.836;2022-08-25T14:00:42;7.38;;;5.95;;
6113;SDS011;3087;48.392;10.836;2022-08-25T14:06:06;8.43;;;6.63;;
6113;SDS011;3087;48.392;10.836;2022-08-25T14:08:47;10.18;;;5.93;;
6113;SDS011;3087;48.392;10.836;2022-08-25T14:14:01;9.90;;;5.90;;
6113;SDS011;3087;48.392;10.836;2022-08-25T14:16:30;6.40;;;5.80;;
6113;SDS011;3087;48.392;10.836;2022-08-25T14:19:00;6.65;;;5.80;;
6113;SDS011;3087;48.392;10.836;2022-08-25T14:21:29;7.85;;;5.97;;
6113;SDS011;3087;48.392;10.836;2022-08-25T14:23:57;8.00;;;5.82;;
6113;SDS011;3087;48.392;10.836;2022-08-25T14:26:24;8.48;;;6.15;;
6113;SDS011;3087;48.392;10.836;2022-08-25T14:28:50;7.85;;;6.38;;
6113;SDS011;3087;48.392;10.836;2022-08-25T14:33:56;9.05;;;6.28;;
6113;SDS011;3087;48.392;10.836;2022-08-25T14:36:25;7.95;;;6.63;;
6113;SDS011;3087;48.392;10.836;2022-08-25T14:38:52;8.02;;;5.93;;
6113;SDS011;3087;48.392;10.836;2022-08-25T14:41:18;8.02;;;6.10;;
6113;SDS011;3087;48.392;10.836;2022-08-25T14:43:44;8.98;;;6.13;;
6113;SDS011;3087;48.392;10.836;2022-08-25T14:46:13;11.05;;;6.70;;
6113;SDS011;3087;48.392;10.836;2022-08-25T14:48:46;11.13;;;7.10;;
6113;SDS011;3087;48.392;10.836;2022-08-25T14:51:16;7.63;;;6.63;;
6113;SDS011;3087;48.392;10.836;2022-08-25T14:53:42;8.52;;;6.70;;
6113;SDS011;3087;48.392;10.836;2022-08-25T14:56:08;10.38;;;6.72;;
6113;SDS011;3087;48.392;10.836;2022-08-25T14:58:34;8.55;;;6.38;;
6113;SDS011;3087;48.392;10.836;2022-08-25T15:01:00;8.60;;;6.47;;
6113;SDS011;3087;48.392;10.836;2022-08-25T15:03:28;10.02;;;6.78;;
6113;SDS011;3087;48.392;10.836;2022-08-25T15:05:56;7.63;;;6.82;;
6113;SDS011;3087;48.392;10.836;2022-08-25T15:08:22;9.90;;;7.07;;
6113;SDS011;3087;48.392;10.836;2022-08-25T15:11:06;9.57;;;6.15;;
6113;SDS011;3087;48.392;10.836;2022-08-25T15:13:32;12.55;;;7.75;;
6113;SDS011;3087;48.392;10.836;2022-08-25T15:15:58;9.52;;;7.40;;
6113;SDS011;3087;48.392;10.836;2022-08-25T15:18:24;9.65;;;6.93;;
6113;SDS011;3087;48.392;10.836;2022-08-25T15:20:49;11.55;;;7.72;;
6113;SDS011;3087;48.392;10.836;2022-08-25T15:23:17;10.55;;;6.75;;
6113;SDS011;3087;48.392;10.836;2022-08-25T15:25:43;10.20;;;6.35;;
6113;SDS011;3087;48.392;10.836;2022-08-25T15:28:11;9.13;;;6.70;;
6113;SDS011;3087;48.392;10.836;2022-08-25T15:30:37;9.52;;;6.07;;
6113;SDS011;3087;48.392;10.836;2022-08-25T15:33:03;9.07;;;6.28;;
6113;SDS011;3087;48.392;10.836;2022-08-25T15:35:29;7.82;;;6.30;;
6113;SDS011;3087;48.392;10.836;2022-08-25T15:37:54;8.25;;;5.72;;
6113;SDS011;3087;48.392;10.836;2022-08-25T15:40:20;10.00;;;6.88;;
6113;SDS011;3087;48.392;10.836;2022-08-25T15:42:45;6.95;;;5.82;;
6113;SDS011;3087;48.392;10.836;2022-08-25T15:45:11;9.07;;;6.38;;
6113;SDS011;3087;48.392;10.836;2022-08-25T15:47:38;7.50;;;5.90;;
6113;SDS011;3087;48.392;10.836;2022-08-25T15:50:05;10.95;;;6.75;;
6113;SDS011;3087;48.392;10.836;2022-08-25T15:52:38;6.80;;;6.00;;
6113;SDS011;3087;48.392;10.836;2022-08-25T15:55:04;6.95;;;6.22;;
6113;SDS011;3087;48.392;10.836;2022-08-25T15:57:30;8.32;;;6.45;;
6113;SDS011;3087;48.392;10.836;2022-08-25T15:59:55;8.52;;;6.40;;
6113;SDS011;3087;48.392;10.836;2022-08-25T16:02:21;8.00;;;6.10;;
6113;SDS011;3087;48.392;10.836;2022-08-25T16:04:46;7.57;;;5.97;;
6113;SDS011;3087;48.392;10.836;2022-08-25T16:07:12;6.75;;;5.65;;
6113;SDS011;3087;48.392;10.836;2022-08-25T16:09:38;10.25;;;6.18;;
6113;SDS011;3087;48.392;10.836;2022-08-25T16:12:04;8.98;;;6.35;;
6113;SDS011;3087;48.392;10.836;2022-08-25T16:14:30;8.90;;;5.75;;
6113;SDS011;3087;48.392;10.836;2022-08-25T16:16:56;6.03;;;5.43;;
6113;SDS011;3087;48.392;10.836;2022-08-25T16:19:21;7.85;;;6.07;;
6113;SDS011;3087;48.392;10.836;2022-08-25T16:21:47;6.93;;;6.22;;
6113;SDS011;3087;48.392;10.836;2022-08-25T16:24:12;6.75;;;5.78;;
6113;SDS011;3087;48.392;10.836;2022-08-25T16:26:38;6.18;;;5.53;;
6113;SDS011;3087;48.392;10.836;2022-08-25T16:29:07;6.53;;;5.60;;
6113;SDS011;3087;48.392;10.836;2022-08-25T16:31:33;8.82;;;6.47;;
6113;SDS011;3087;48.392;10.836;2022-08-25T16:33:59;6.28;;;5.32;;
6113;SDS011;3087;48.392;10.836;2022-08-25T16:36:25;6.50;;;5.18;;
6113;SDS011;3087;48.392;10.836;2022-08-25T16:38:52;11.32;;;9.13;;
6113;SDS011;3087;48.392;10.836;2022-08-25T16:41:23;6.53;;;5.93;;
6113;SDS011;3087;48.392;10.836;2022-08-25T16:43:50;6.30;;;5.57;;
6113;SDS011;3087;48.392;10.836;2022-08-25T16:46:17;8.20;;;5.65;;
6113;SDS011;3087;48.392;10.836;2022-08-25T16:48:44;10.10;;;7.07;;
6113;SDS011;3087;48.392;10.836;2022-08-25T16:51:12;7.40;;;6.38;;
6113;SDS011;3087;48.392;10.836;2022-08-25T16:53:39;11.77;;;7.18;;
6113;SDS011;3087;48.392;10.836;2022-08-25T16:56:24;12.13;;;7.70;;
6113;SDS011;3087;48.392;10.836;2022-08-25T16:58:51;8.93;;;6.40;;
6113;SDS011;3087;48.392;10.836;2022-08-25T17:01:19;9.73;;;6.05;;
6113;SDS011;3087;48.392;10.836;2022-08-25T17:03:46;7.72;;;6.22;;
6113;SDS011;3087;48.392;10.836;2022-08-25T17:06:12;9.43;;;7.57;;
6113;SDS011;3087;48.392;10.836;2022-08-25T17:08:38;10.00;;;6.28;;
6113;SDS011;3087;48.392;10.836;2022-08-25T17:11:16;7.10;;;6.00;;
6113;SDS011;3087;48.392;10.836;2022-08-25T17:13:44;11.10;;;5.90;;
6113;SDS011;3087;48.392;10.836;2022-08-25T17:16:12;8.98;;;7.22;;
6113;SDS011;3087;48.392;10.836;2022-08-25T17:18:38;9.30;;;6.93;;
6113;SDS011;3087;48.392;10.836;2022-08-25T17:21:05;12.93;;;6.78;;
6113;SDS011;3087;48.392;10.836;2022-08-25T17:23:36;11.25;;;6.93;;